createdAt,value
2022-12-08T17:12:47.221Z,2.24
2022-12-08T17:15:19.629Z,2.43
2022-12-08T17:17:48.047Z,2.29
2022-12-08T17:20:19.160Z,2.15
2022-12-08T17:22:48.493Z,2.11
2022-12-08T17:25:17.003Z,2.24
2022-12-08T17:27:46.992Z,1.95
2022-12-08T17:30:17.628Z,2.16
2022-12-08T17:32:46.887Z,2.00
2022-12-08T17:35:15.775Z,2.04
2022-12-08T17:37:44.709Z,2.28
2022-12-08T17:40:13.379Z,2.10
2022-12-08T17:42:42.377Z,2.17
2022-12-08T17:45:13.118Z,2.35
2022-12-08T17:47:41.738Z,2.26
2022-12-08T17:50:11.037Z,2.25
2022-12-08T17:52:39.716Z,2.28
2022-12-08T17:55:09.167Z,2.22
2022-12-08T17:57:37.394Z,2.02
2022-12-08T18:00:08.689Z,2.13
2022-12-08T18:02:42.143Z,2.19
2022-12-08T18:05:10.963Z,2.32
2022-12-08T18:07:39.217Z,2.18
2022-12-08T18:10:09.051Z,2.19
2022-12-08T18:12:37.815Z,2.14
2022-12-08T18:15:09.922Z,2.06
2022-12-08T18:17:38.424Z,2.19
2022-12-08T18:20:10.920Z,2.06
2022-12-08T18:22:39.466Z,2.08
2022-12-08T18:25:10.594Z,2.24
2022-12-08T18:27:43.192Z,2.11
2022-12-08T18:30:17.893Z,2.05
2022-12-08T18:32:47.241Z,2.16
2022-12-08T18:35:17.330Z,2.05
2022-12-08T18:37:46.951Z,2.07
2022-12-08T18:40:16.430Z,2.19
2022-12-08T18:42:44.990Z,2.12
2022-12-08T18:45:16.735Z,2.27
2022-12-08T18:47:47.765Z,2.24
2022-12-08T18:50:18.718Z,2.28
2022-12-08T18:52:48.135Z,2.26
2022-12-08T18:55:17.004Z,2.39
2022-12-08T18:57:45.385Z,2.29
2022-12-08T19:00:16.808Z,2.22
2022-12-08T19:02:45.827Z,2.31
2022-12-08T19:05:16.344Z,2.34
2022-12-08T19:07:46.868Z,2.30
2022-12-08T19:10:15.354Z,2.17
2022-12-08T19:12:44.479Z,2.38
2022-12-08T19:15:16.241Z,2.19
2022-12-08T19:17:44.777Z,2.01
2022-12-08T19:20:14.858Z,2.15
2022-12-08T19:22:43.271Z,2.29
2022-12-08T19:25:13.393Z,2.22
2022-12-08T19:27:41.686Z,2.09
2022-12-08T19:30:12.569Z,2.17
2022-12-08T19:32:41.006Z,2.16
2022-12-08T19:35:10.201Z,2.26
2022-12-08T19:37:39.002Z,2.11
2022-12-08T19:40:26.749Z,2.41
2022-12-08T19:43:14.275Z,2.34
2022-12-08T19:45:42.771Z,2.48
2022-12-08T19:48:12.840Z,2.23
2022-12-08T19:50:42.047Z,2.45
2022-12-08T19:53:13.794Z,2.60
2022-12-08T19:55:43.914Z,2.48
2022-12-08T19:58:13.664Z,2.44
2022-12-08T20:00:43.085Z,2.37
2022-12-08T20:03:17.481Z,2.31
2022-12-08T20:05:48.088Z,2.49
2022-12-08T20:08:17.406Z,2.44
2022-12-08T20:10:46.930Z,2.30
2022-12-08T20:13:36.125Z,2.43
2022-12-08T20:16:04.890Z,2.41
2022-12-08T20:18:36.468Z,2.66
2022-12-08T20:21:05.658Z,2.59
2022-12-08T20:23:35.732Z,2.64
2022-12-08T20:26:06.800Z,2.48
2022-12-08T20:28:37.417Z,2.40
2022-12-08T20:31:06.669Z,2.41
2022-12-08T20:33:35.469Z,2.27
2022-12-08T20:36:07.530Z,2.39
2022-12-08T20:38:37.075Z,2.50
2022-12-08T20:41:10.519Z,2.63
2022-12-08T20:43:40.291Z,2.67
2022-12-08T20:46:10.220Z,2.70
2022-12-08T20:48:39.178Z,2.80
2022-12-08T20:51:08.363Z,2.74
2022-12-08T20:53:36.632Z,2.62
2022-12-08T20:56:04.999Z,2.44
2022-12-08T20:58:33.293Z,2.43
2022-12-08T21:01:09.630Z,2.75
2022-12-08T21:03:38.270Z,2.56
2022-12-08T21:06:08.602Z,2.53
2022-12-08T21:08:38.530Z,2.54
2022-12-08T21:11:09.111Z,2.27
2022-12-08T21:13:39.828Z,2.43
2022-12-08T21:16:14.229Z,2.18
2022-12-08T21:18:43.559Z,2.33
2022-12-08T21:21:15.210Z,2.52
2022-12-08T21:23:48.668Z,2.69
2022-12-08T21:26:19.687Z,2.32
2022-12-08T21:28:48.897Z,2.39
2022-12-08T21:31:21.734Z,2.54
2022-12-08T21:33:51.070Z,2.46
2022-12-08T21:36:22.155Z,2.51
2022-12-08T21:38:50.960Z,2.33
2022-12-08T21:41:37.373Z,2.35
2022-12-08T21:44:06.661Z,2.37
2022-12-08T21:46:37.640Z,2.40
2022-12-08T21:49:06.777Z,2.59
2022-12-08T21:51:38.027Z,2.12
2022-12-08T21:54:07.042Z,2.03
2022-12-08T21:56:35.824Z,2.17
2022-12-08T21:59:04.595Z,2.08
2022-12-08T22:01:33.442Z,2.33
2022-12-08T22:04:03.632Z,2.40
2022-12-08T22:06:32.715Z,2.16
2022-12-08T22:09:01.359Z,2.00
2022-12-08T22:11:30.921Z,2.12
2022-12-08T22:13:59.991Z,2.08
2022-12-08T22:16:28.545Z,2.19
2022-12-08T22:19:02.016Z,1.99
2022-12-08T22:21:31.977Z,1.98
2022-12-08T22:24:01.013Z,1.87
2022-12-08T22:26:29.426Z,1.72
2022-12-08T22:28:58.424Z,1.61
2022-12-08T22:31:26.993Z,1.81
2022-12-08T22:33:55.795Z,1.93
2022-12-08T22:36:27.482Z,1.80
2022-12-08T22:38:58.922Z,1.74
2022-12-08T22:41:27.512Z,1.75
2022-12-08T22:43:58.448Z,1.88
2022-12-08T22:46:28.758Z,1.80
2022-12-08T22:48:57.108Z,1.63
2022-12-08T22:51:25.631Z,1.79
2022-12-08T22:53:54.478Z,1.89
2022-12-08T22:56:24.150Z,1.88
2022-12-08T22:58:52.877Z,1.67
2022-12-08T23:01:27.341Z,1.66
2022-12-08T23:03:55.823Z,1.43
2022-12-08T23:06:25.486Z,1.56
2022-12-08T23:08:58.123Z,1.72
2022-12-08T23:11:33.284Z,1.51
2022-12-08T23:14:03.448Z,1.67
2022-12-08T23:16:35.334Z,1.62
2022-12-08T23:19:05.603Z,1.64
2022-12-08T23:21:36.150Z,1.35
2022-12-08T23:24:05.692Z,1.37
2022-12-08T23:26:40.877Z,1.47
2022-12-08T23:29:11.262Z,1.26
2022-12-08T23:31:41.433Z,1.45
2022-12-08T23:34:13.401Z,1.27
2022-12-08T23:36:42.087Z,1.12
2022-12-08T23:39:12.709Z,1.30
2022-12-08T23:41:43.781Z,1.36
2022-12-08T23:44:12.435Z,1.25
2022-12-08T23:46:41.367Z,1.16
2022-12-08T23:49:09.722Z,1.36
2022-12-08T23:51:38.155Z,1.40
2022-12-08T23:54:09.796Z,1.34
2022-12-08T23:56:38.628Z,1.29
2022-12-08T23:59:08.216Z,1.39
